Time;durP1;ratioP1;P1;durP2;ratioP2;P2;SDS_P1;SDS_P2;PMS_P1;PMS_P2;Temp;Humidity;BMP_temperature;BMP_pressure;BME280_temperature;BME280_humidity;BME280_pressure;Samples;Min_cycle;Max_cycle;Signal;HPM_P1;HPM_P2
2022/06/06 00:01:34;;;;;;;0.90;0.85;;;;;;;28.92;43.66;101402.66;4167123;28;20079;-61
2022/06/06 00:03:35;;;;;;;0.90;0.70;;;;;;;28.91;43.92;101400.97;4180133;28;20032;-62
2022/06/06 00:05:36;;;;;;;1.08;0.70;;;;;;;28.90;43.65;101405.78;4189214;28;20480;-61
2022/06/06 00:07:38;;;;;;;1.63;0.90;;;;;;;28.87;43.69;101410.09;4189628;28;20049;-61
2022/06/06 00:09:39;;;;;;;1.15;1.05;;;;;;;28.88;43.14;101406.13;4163318;28;20095;-61
2022/06/06 00:11:44;;;;;;;0.70;0.70;;;;;;;28.88;43.60;101402.47;4164500;28;20140;-62
2022/06/06 00:13:52;;;;;;;0.95;0.80;;;;;;;28.85;43.63;101401.13;4163759;28;20547;-61
2022/06/06 00:15:54;;;;;;;1.48;1.00;;;;;;;28.87;43.83;101407.28;4164960;28;20029;-61
2022/06/06 00:17:57;;;;;;;2.50;0.80;;;;;;;28.85;43.70;101403.94;4164021;28;20037;-61
2022/06/06 00:19:59;;;;;;;3.80;0.80;;;;;;;28.87;43.84;101398.00;4164797;28;20038;-62
2022/06/06 00:22:01;;;;;;;2.30;0.80;;;;;;;28.82;43.63;101387.72;4164438;28;20046;-62
2022/06/06 00:24:03;;;;;;;2.05;0.75;;;;;;;28.85;42.98;101403.94;4163044;28;20037;-63
2022/06/06 00:26:07;;;;;;;0.98;0.82;;;;;;;28.84;43.12;101402.28;4163940;28;20049;-62
2022/06/06 00:28:10;;;;;;;2.25;0.70;;;;;;;28.83;43.36;101403.47;4163913;28;20045;-62
2022/06/06 00:30:14;;;;;;;1.48;0.70;;;;;;;28.83;43.51;101403.47;4163871;28;20037;-61
2022/06/06 00:34:51;;;;;;;0.70;0.70;;;;;;;28.84;43.68;101407.94;4165177;28;20091;-61
2022/06/06 00:36:53;;;;;;;1.40;0.63;;;;;;;28.84;43.70;101407.94;4163378;28;20037;-62
2022/06/06 00:38:57;;;;;;;4.47;0.88;;;;;;;28.84;43.60;101412.72;4164447;28;20038;-62
2022/06/06 00:41:01;;;;;;;0.70;0.70;;;;;;;28.82;43.70;101415.88;4163989;28;20099;-62
2022/06/06 00:43:03;;;;;;;1.75;0.77;;;;;;;28.83;43.47;101417.53;4164125;28;20042;-62
2022/06/06 00:45:32;;;;;;;1.05;0.85;;;;;;;28.82;43.56;101415.88;4163781;28;20096;-61
2022/06/06 00:47:37;;;;;;;1.50;0.70;;;;;;;28.82;43.79;101420.69;4163099;28;20041;-61
2022/06/06 00:49:43;;;;;;;3.72;0.98;;;;;;;28.81;43.29;101419.84;4164755;28;20037;-61
2022/06/06 00:51:48;;;;;;;2.75;0.70;;;;;;;28.81;43.48;101428.28;4164960;28;20088;-63
2022/06/06 00:53:55;;;;;;;1.48;0.95;;;;;;;28.81;43.50;101430.28;4164165;28;20041;-62
2022/06/06 00:56:04;;;;;;;2.83;0.80;;;;;;;28.80;43.65;101431.44;4164304;28;20041;-62
2022/06/06 00:58:21;;;;;;;1.02;0.95;;;;;;;28.78;43.66;101440.22;4163826;28;20050;-61
2022/06/06 01:00:23;;;;;;;2.38;0.98;;;;;;;28.78;43.51;101437.41;4163994;28;20038;-61
2022/06/06 01:02:34;;;;;;;2.15;0.77;;;;;;;28.80;43.44;101435.06;4163259;28;20037;-62
2022/06/06 01:04:36;;;;;;;1.48;0.70;;;;;;;28.80;43.32;101437.06;4163705;28;20045;-61
2022/06/06 01:06:44;;;;;;;2.17;0.63;;;;;;;28.78;43.71;101434.59;4163793;28;20100;-62
2022/06/06 01:08:48;;;;;;;0.70;0.70;;;;;;;28.80;43.46;101445.50;4163674;28;20104;-61
2022/06/06 01:10:49;;;;;;;1.05;0.70;;;;;;;28.79;43.54;101443.84;4164166;28;20480;-61
2022/06/06 01:12:54;;;;;;;1.88;0.73;;;;;;;28.78;43.65;101451.47;4163364;28;20111;-62
2022/06/06 01:15:02;;;;;;;0.82;0.80;;;;;;;28.77;43.30;101441.38;4164041;28;20041;-61
2022/06/06 01:17:35;;;;;;;2.30;0.88;;;;;;;28.77;43.71;101465.88;4164206;28;20045;-61
2022/06/06 01:19:59;;;;;;;2.25;0.95;;;;;;;28.77;43.48;101463.91;4137894;28;20041;-62
2022/06/06 01:22:26;;;;;;;0.65;0.65;;;;;;;28.77;43.72;101474.31;4164029;28;20041;-61
2022/06/06 01:24:39;;;;;;;2.65;0.90;;;;;;;28.77;43.51;101471.50;4164083;28;20042;-60
2022/06/06 01:27:15;;;;;;;1.40;0.80;;;;;;;28.75;43.46;101476.63;4166204;28;20108;-60
2022/06/06 01:29:20;;;;;;;;;;;;;;;28.77;43.41;101485.59;4156688;28;20091;-60
2022/06/06 01:31:36;;;;;;;1.30;0.70;;;;;;;28.81;43.00;101493.06;4167318;28;19913;-61
2022/06/06 01:33:48;;;;;;;1.38;0.68;;;;;;;28.79;43.29;101503.84;4166731;28;20037;-62
2022/06/06 01:35:52;;;;;;;2.17;0.63;;;;;;;28.80;43.28;101502.69;4167154;28;20037;-63
2022/06/06 01:37:54;;;;;;;1.80;0.70;;;;;;;28.77;43.33;101499.66;4166138;28;20100;-61
2022/06/06 01:39:58;;;;;;;0.60;0.50;;;;;;;28.77;43.19;101494.88;4166977;28;20088;-62
2022/06/06 01:42:27;;;;;;;0.95;0.80;;;;;;;28.74;43.22;101498.34;4166569;28;20079;-60
2022/06/06 01:45:00;;;;;;;2.25;0.80;;;;;;;28.74;43.08;101498.34;4167048;28;20095;-61
2022/06/06 01:47:07;;;;;;;0.85;0.80;;;;;;;28.77;43.20;101508.97;4165156;28;20041;-63
2022/06/06 01:49:16;;;;;;;2.35;1.00;;;;;;;28.76;43.10;101504.47;4167559;28;20034;-62
2022/06/06 01:51:27;;;;;;;1.02;0.73;;;;;;;28.68;43.34;101493.97;4166281;28;21136;-62
2022/06/06 01:53:36;;;;;;;0.90;0.80;;;;;;;28.74;43.66;101503.97;4167235;28;20087;-61
2022/06/06 01:55:42;;;;;;;1.35;0.80;;;;;;;28.75;43.24;101516.91;4166568;28;20437;-62
2022/06/06 01:57:45;;;;;;;2.35;0.60;;;;;;;28.74;43.61;101512.41;4148774;28;20088;-62
2022/06/06 01:59:46;;;;;;;1.40;0.90;;;;;;;28.73;43.32;101507.94;4166684;28;20037;-62
2022/06/06 02:01:47;;;;;;;0.85;0.82;;;;;;;28.74;43.10;101506.78;4167072;28;20029;-62
2022/06/06 02:03:49;;;;;;;0.65;0.63;;;;;;;28.73;43.19;101507.94;4166619;28;20179;-62
2022/06/06 02:05:52;;;;;;;0.90;0.70;;;;;;;28.73;43.20;101519.22;4148953;28;20120;-61
2022/06/06 02:07:53;;;;;;;0.65;0.65;;;;;;;28.69;43.30;101509.75;4166083;28;20075;-61
2022/06/06 02:09:55;;;;;;;1.25;0.80;;;;;;;28.73;43.43;101513.59;4166547;28;20477;-61
2022/06/06 02:11:56;;;;;;;0.80;0.70;;;;;;;28.73;43.19;101518.38;4166657;28;20092;-61
2022/06/06 02:14:04;;;;;;;1.02;0.90;;;;;;;28.71;43.13;101515.88;4166385;28;20042;-62
2022/06/06 02:16:06;;;;;;;1.80;1.00;;;;;;;28.63;43.13;101513.81;4169405;28;20030;-62
2022/06/06 02:18:07;;;;;;;0.80;0.73;;;;;;;28.64;43.21;101509.88;4165977;28;20103;-61
2022/06/06 02:20:12;;;;;;;0.85;0.63;;;;;;;28.72;43.39;101523.16;4171289;28;20033;-62
2022/06/06 02:22:16;;;;;;;4.78;1.30;;;;;;;28.73;43.51;101524.03;4176346;28;20037;-62
2022/06/06 02:24:17;;;;;;;4.22;1.00;;;;;;;28.71;43.08;101526.31;4176081;28;20079;-61
2022/06/06 02:26:18;;;;;;;2.83;1.13;;;;;;;28.68;42.34;101527.75;4170429;28;20036;-61
2022/06/06 02:28:20;;;;;;;4.47;1.02;;;;;;;28.62;41.84;101529.88;4181998;28;20086;-61
2022/06/06 02:30:27;;;;;;;4.38;0.77;;;;;;;28.52;41.56;101527.31;4195894;28;20491;-62
2022/06/06 02:32:29;;;;;;;3.58;1.40;;;;;;;28.48;41.34;101525.47;4198952;28;20553;-62
2022/06/06 02:34:30;;;;;;;3.20;1.30;;;;;;;28.40;40.64;101520.59;4199177;28;20418;-61
2022/06/06 02:36:31;;;;;;;3.78;1.00;;;;;;;28.25;40.60;101504.88;4199422;28;20106;-62
2022/06/06 02:38:36;;;;;;;4.07;0.90;;;;;;;28.22;40.45;101513.94;4191237;28;20040;-63
2022/06/06 02:40:37;;;;;;;7.03;1.27;;;;;;;28.22;39.89;101520.41;4192084;28;20041;-62
2022/06/06 02:42:39;;;;;;;2.72;1.20;;;;;;;28.17;39.91;101528.97;4183045;28;20387;-62
2022/06/06 02:44:40;;;;;;;4.50;0.93;;;;;;;28.11;39.65;101530.25;4183016;28;20099;-62
2022/06/06 02:46:44;;;;;;;1.10;0.80;;;;;;;28.08;39.62;101530.88;4182330;28;20045;-62
2022/06/06 02:48:49;;;;;;;3.03;0.77;;;;;;;28.04;39.58;101524.19;4181907;28;20041;-62
2022/06/06 02:50:50;;;;;;;1.23;0.70;;;;;;;27.96;39.45;101527.78;4181799;28;20040;-62
2022/06/06 02:52:53;;;;;;;3.33;0.77;;;;;;;27.96;39.19;101533.41;4164945;28;20045;-62
2022/06/06 02:54:54;;;;;;;2.38;1.00;;;;;;;27.92;38.97;101535.19;4177710;28;20079;-61
2022/06/06 02:56:59;;;;;;;2.03;0.90;;;;;;;27.86;38.74;101529.66;4198772;28;20040;-62
2022/06/06 02:59:04;;;;;;;4.68;1.10;;;;;;;27.81;38.79;101529.78;4181155;28;20474;-61
2022/06/06 03:01:09;;;;;;;3.50;0.80;;;;;;;27.76;38.78;101523.41;4198068;28;20103;-60
2022/06/06 03:03:11;;;;;;;2.30;0.82;;;;;;;27.73;38.72;101529.69;4165478;28;20037;-62
2022/06/06 03:05:16;;;;;;;1.48;1.00;;;;;;;27.70;38.64;101536.72;4165847;28;20049;-62
2022/06/06 03:07:42;;;;;;;2.08;0.90;;;;;;;27.64;38.70;101529.56;4165573;28;20050;-61
2022/06/06 03:10:13;;;;;;;1.05;0.93;;;;;;;27.62;38.72;101526.19;4165781;28;20045;-61
2022/06/06 03:12:41;;;;;;;1.35;0.82;;;;;;;27.61;38.64;101521.72;4166059;28;20087;-61
2022/06/06 03:14:48;;;;;;;1.70;1.05;;;;;;;27.59;38.60;101518.41;4165852;28;20095;-62
2022/06/06 03:22:09;;;;;;;2.10;0.80;;;;;;;27.52;38.06;101518.00;4167397;28;20113;-60
2022/06/06 03:24:32;;;;;;;1.75;1.00;;;;;;;27.48;38.47;101516.94;4165857;28;20106;-62
2022/06/06 03:27:14;;;;;;;1.55;1.00;;;;;;;27.45;38.16;101512.78;4169988;28;20053;-61
2022/06/06 03:29:24;;;;;;;1.50;1.00;;;;;;;27.45;38.04;101517.59;4166349;28;20370;-60
2022/06/06 03:31:47;;;;;;;1.17;1.02;;;;;;;26.38;38.02;101362.28;4168463;28;20096;-61
2022/06/06 03:34:13;;;;;;;3.05;0.95;;;;;;;27.38;37.89;101522.78;4196819;28;20044;-61
2022/06/06 03:36:41;;;;;;;1.50;1.02;;;;;;;27.34;37.82;101529.00;4192464;28;20082;-60
2022/06/06 03:38:53;;;;;;;1.40;1.00;;;;;;;27.31;37.53;101535.28;4181680;28;20103;-62
2022/06/06 03:41:14;;;;;;;2.03;0.85;;;;;;;27.29;37.57;101528.28;4181731;28;20122;-61
2022/06/06 03:43:42;;;;;;;2.67;1.08;;;;;;;27.23;37.79;101530.34;4176944;28;20562;-61
2022/06/06 03:46:34;;;;;;;1.50;0.98;;;;;;;27.20;37.46;101533.78;4180321;28;20443;-62
2022/06/06 03:48:45;;;;;;;2.85;0.85;;;;;;;27.23;37.41;101538.78;4130465;28;20554;-61
2022/06/06 03:51:05;;;;;;;6.07;0.98;;;;;;;27.20;37.46;101533.78;4163211;28;20091;-62
2022/06/06 03:53:24;;;;;;;2.88;1.00;;;;;;;27.15;37.45;101521.81;4162850;28;20370;-63
2022/06/06 03:55:57;;;;;;;1.52;1.00;;;;;;;27.16;37.54;101531.91;4165796;28;20078;-61
2022/06/06 03:58:03;;;;;;;2.35;1.60;;;;;;;27.17;37.56;101527.94;4181955;28;20425;-60
2022/06/06 04:00:12;;;;;;;2.50;0.80;;;;;;;27.18;37.65;101529.63;4164647;28;20045;-60
2022/06/06 04:02:24;;;;;;;4.20;1.05;;;;;;;27.17;37.75;101531.59;4163665;28;20029;-61
2022/06/06 04:04:28;;;;;;;5.30;1.17;;;;;;;27.18;37.56;101529.63;4164357;28;20416;-62
2022/06/06 04:06:32;;;;;;;1.92;1.10;;;;;;;27.16;37.54;101532.72;4164539;28;20041;-60
2022/06/06 04:08:33;;;;;;;3.40;1.20;;;;;;;27.13;37.41;101515.69;4164279;28;20029;-61
2022/06/06 04:10:49;;;;;;;2.35;0.90;;;;;;;27.14;37.14;101520.16;4165309;28;20412;-60
2022/06/06 04:13:11;;;;;;;1.88;1.10;;;;;;;27.11;36.94;101518.78;4164588;28;20049;-61
2022/06/06 04:15:52;;;;;;;2.50;0.88;;;;;;;27.07;36.96;101518.53;4174991;28;20570;-61
2022/06/06 04:18:26;;;;;;;2.22;1.13;;;;;;;27.06;36.76;101516.03;4163530;28;20079;-61
2022/06/06 04:20:40;;;;;;;5.90;1.60;;;;;;;27.05;36.88;101515.22;4165276;28;20047;-61
2022/06/06 04:22:58;;;;;;;4.97;1.92;;;;;;;27.02;36.88;101514.97;4164711;28;20029;-61
2022/06/06 04:25:24;;;;;;;5.45;1.10;;;;;;;27.00;36.75;101508.84;4164625;28;20037;-61
2022/06/06 04:27:41;;;;;;;4.68;0.93;;;;;;;27.00;36.72;101523.72;4164658;28;20083;-61
2022/06/06 04:30:07;;;;;;;4.15;1.10;;;;;;;26.97;37.04;101512.28;4164337;28;20033;-61
2022/06/06 04:32:42;;;;;;;1.63;1.00;;;;;;;26.97;37.00;101523.50;4156498;28;20109;-62
2022/06/06 04:35:01;;;;;;;5.03;1.15;;;;;;;26.93;36.97;101516.84;4164400;28;20107;-61
2022/06/06 04:37:28;;;;;;;2.13;1.00;;;;;;;26.96;36.91;101521.84;4164217;28;20037;-62
2022/06/06 04:40:02;;;;;;;4.93;1.20;;;;;;;26.95;36.74;101520.19;4153940;28;20108;-61
2022/06/06 04:42:33;;;;;;;2.63;1.00;;;;;;;26.88;36.86;101514.13;4164613;28;20038;-61
2022/06/06 04:44:46;;;;;;;2.00;1.30;;;;;;;26.93;36.40;101522.44;4136789;28;20076;-62
2022/06/06 04:46:53;;;;;;;1.73;0.98;;;;;;;26.90;36.31;101518.31;4163987;28;20095;-60
2022/06/06 04:48:56;;;;;;;2.45;1.15;;;;;;;26.89;35.94;101533.47;4164353;28;20037;-61
2022/06/06 04:51:03;;;;;;;2.55;1.17;;;;;;;26.82;36.17;101519.84;4163500;28;20091;-60
2022/06/06 04:53:13;;;;;;;3.35;0.80;;;;;;;26.84;36.18;101525.97;4164881;28;20038;-62
2022/06/06 04:55:19;;;;;;;1.48;0.95;;;;;;;26.83;36.19;101541.16;4164385;28;20038;-62
2022/06/06 04:57:22;;;;;;;3.63;1.02;;;;;;;26.83;36.39;101541.16;4163915;28;20057;-60
2022/06/06 04:59:25;;;;;;;7.25;0.90;;;;;;;26.81;36.17;101537.81;4164130;28;20073;-60
2022/06/06 05:01:26;;;;;;;3.25;1.50;;;;;;;26.81;36.43;101537.00;4166367;28;20049;-60
2022/06/06 05:03:27;;;;;;;2.22;0.77;;;;;;;26.79;36.30;101531.66;4167343;28;20099;-61
2022/06/06 05:05:54;;;;;;;2.00;0.80;;;;;;;26.78;36.63;101527.19;4167571;28;20041;-61
2022/06/06 05:08:27;;;;;;;2.85;0.93;;;;;;;26.76;36.38;101529.50;4167442;28;20459;-61
2022/06/06 05:10:51;;;;;;;1.75;0.90;;;;;;;26.75;36.52;101525.00;4167620;28;20045;-61
2022/06/06 05:13:15;;;;;;;4.55;0.82;;;;;;;26.76;36.23;101535.13;4167520;28;20436;-61
2022/06/06 05:15:42;;;;;;;2.15;0.90;;;;;;;26.74;36.03;101528.94;4150269;28;20041;-62
2022/06/06 05:18:37;;;;;;;1.23;0.95;;;;;;;26.71;36.11;101543.63;4153169;28;20099;-61
2022/06/06 05:20:53;;;;;;;2.53;0.90;;;;;;;26.73;36.02;101532.91;4166697;28;20422;-61
2022/06/06 05:23:29;;;;;;;3.20;0.95;;;;;;;26.56;36.03;101524.19;4167620;28;20041;-61
2022/06/06 05:26:11;;;;;;;2.05;1.27;;;;;;;26.67;36.01;101542.56;4167474;28;20045;-60
2022/06/06 05:28:39;;;;;;;1.02;0.88;;;;;;;26.67;36.06;101531.34;4166688;28;20041;-61
2022/06/06 05:31:00;;;;;;;1.75;1.20;;;;;;;26.66;36.22;101540.88;4167157;28;20103;-61
2022/06/06 05:33:18;;;;;;;2.33;1.00;;;;;;;26.65;36.18;101527.16;4166696;28;20159;-62
2022/06/06 05:35:41;;;;;;;2.05;0.77;;;;;;;26.64;35.91;101534.75;4164827;28;20099;-62
2022/06/06 05:38:11;;;;;;;1.85;0.93;;;;;;;26.62;36.27;101534.22;4167309;28;20084;-62
2022/06/06 05:40:23;;;;;;;1.75;0.90;;;;;;;26.60;35.74;101534.50;4131660;28;20041;-62
2022/06/06 05:42:45;;;;;;;3.03;1.00;;;;;;;26.59;35.83;101535.66;4166877;28;20041;-62
2022/06/06 05:45:11;;;;;;;0.63;0.60;;;;;;;26.55;35.60;101539.38;4167596;28;20029;-60
2022/06/06 05:47:29;;;;;;;1.20;0.90;;;;;;;26.54;35.56;101532.09;4166184;28;20069;-61
2022/06/06 05:50:02;;;;;;;1.52;1.08;;;;;;;26.51;35.94;101532.72;4166893;28;20091;-61
2022/06/06 05:52:40;;;;;;;1.48;0.90;;;;;;;26.49;35.90;101535.84;4165890;28;20045;-61
2022/06/06 05:54:54;;;;;;;0.85;0.75;;;;;;;26.42;35.82;101517.66;4166862;28;20107;-60
2022/06/06 05:57:07;;;;;;;2.58;1.00;;;;;;;26.47;35.95;101520.41;4166553;28;20091;-60
2022/06/06 05:59:27;;;;;;;4.10;1.00;;;;;;;26.48;35.42;101525.75;4166502;28;20091;-60
2022/06/06 06:02:09;;;;;;;1.50;0.90;;;;;;;26.43;35.93;101525.81;4166761;28;20515;-60
2022/06/06 06:04:29;;;;;;;1.45;0.90;;;;;;;26.44;35.30;101529.47;4166376;28;20037;-61
2022/06/06 06:06:45;;;;;;;2.05;0.80;;;;;;;26.42;35.35;101542.94;4167019;28;20080;-61
2022/06/06 06:08:46;;;;;;;2.63;1.08;;;;;;;26.41;35.14;101528.06;4166286;28;20099;-61
2022/06/06 06:11:08;;;;;;;2.30;1.08;;;;;;;26.38;35.28;101537.09;4166392;28;20472;-61
2022/06/06 06:13:38;;;;;;;2.25;0.90;;;;;;;26.34;35.44;101539.69;4164966;28;20045;-61
2022/06/06 06:15:43;;;;;;;1.38;0.80;;;;;;;26.35;35.26;101538.53;4165420;28;20079;-61
2022/06/06 06:17:48;;;;;;;1.40;0.90;;;;;;;26.35;35.22;101546.13;4166071;28;20049;-61
2022/06/06 06:19:56;;;;;;;;;;;;;;;26.31;35.40;101545.91;4166033;28;20042;-61
2022/06/06 06:21:59;;;;;;;1.98;1.00;;;;;;;26.36;35.10;101548.63;4166065;28;19959;-60
2022/06/06 06:24:11;;;;;;;1.73;1.00;;;;;;;26.32;35.35;101544.75;4165941;28;20037;-62
2022/06/06 06:26:16;;;;;;;1.38;0.80;;;;;;;26.33;34.72;101549.22;4165974;28;20033;-60
2022/06/06 06:28:20;;;;;;;2.15;1.10;;;;;;;26.30;35.21;101544.22;4165509;28;20390;-60
2022/06/06 06:30:22;;;;;;;1.00;0.70;;;;;;;26.28;34.90;101554.06;4166102;28;20045;-60
2022/06/06 06:32:38;;;;;;;1.58;0.85;;;;;;;26.24;35.08;101548.22;4166011;28;20501;-60
2022/06/06 06:35:01;;;;;;;1.15;0.95;;;;;;;26.24;34.87;101539.81;4165889;28;20033;-60
2022/06/06 06:37:17;;;;;;;1.25;0.90;;;;;;;26.22;35.14;101547.72;4166025;28;20107;-60
2022/06/06 06:39:48;;;;;;;1.83;0.70;;;;;;;26.20;34.85;101547.16;4166239;28;20041;-60
2022/06/06 06:42:31;;;;;;;1.45;0.70;;;;;;;26.19;34.93;101544.66;4166068;28;20550;-60
2022/06/06 06:44:40;;;;;;;0.82;0.80;;;;;;;26.18;34.72;101546.66;4165971;28;20123;-60
2022/06/06 06:46:56;;;;;;;2.20;0.90;;;;;;;26.18;35.17;101552.25;4165531;28;20550;-61
2022/06/06 06:49:32;;;;;;;1.20;0.82;;;;;;;26.17;35.46;101547.78;4164990;28;20041;-60
2022/06/06 06:51:43;;;;;;;1.83;0.60;;;;;;;26.18;35.36;101557.03;4163754;28;20046;-60
2022/06/06 06:54:03;;;;;;;1.17;0.85;;;;;;;26.16;35.31;101548.94;4165590;28;20099;-60
2022/06/06 06:56:49;;;;;;;3.25;1.00;;;;;;;26.17;35.45;101552.56;4165947;28;20034;-61
2022/06/06 06:59:02;;;;;;;2.60;1.07;;;;;;;26.18;35.46;101555.06;4165996;28;20099;-60
2022/06/06 07:01:07;;;;;;;1.15;0.75;;;;;;;26.18;35.52;101557.88;4165902;28;20075;-61
2022/06/06 07:09:19;;;;;;;2.10;0.88;;;;;;;26.14;35.53;101548.38;4165693;28;20111;-61
2022/06/06 07:11:44;;;;;;;2.17;0.73;;;;;;;26.16;35.50;101548.06;4165556;28;20559;-60
2022/06/06 07:14:16;;;;;;;1.52;0.70;;;;;;;26.13;35.36;101549.53;4165524;28;20095;-61
2022/06/06 07:16:31;;;;;;;2.20;1.13;;;;;;;26.13;35.42;101551.50;4165657;28;20425;-61
2022/06/06 07:18:36;;;;;;;2.85;1.05;;;;;;;26.13;35.77;101546.72;4164218;28;20042;-61
2022/06/06 07:20:39;;;;;;;;;;;;;;;26.11;35.97;101551.78;4165683;28;20096;-61
2022/06/06 07:23:01;;;;;;;1.02;0.68;;;;;;;26.17;35.44;101546.97;4165736;28;19913;-61
2022/06/06 07:25:05;;;;;;;1.80;1.15;;;;;;;26.16;35.26;101542.47;4165464;28;20103;-61
2022/06/06 07:27:09;;;;;;;1.58;0.73;;;;;;;26.04;35.57;101517.69;4165510;28;20075;-62
2022/06/06 07:29:16;;;;;;;1.05;0.70;;;;;;;26.09;35.53;101528.81;4147665;28;20473;-62
2022/06/06 07:31:36;;;;;;;1.00;0.77;;;;;;;26.09;35.83;101526.03;4164855;28;20392;-61
2022/06/06 07:34:13;;;;;;;2.22;0.95;;;;;;;26.07;35.66;101531.06;4165290;28;20037;-61
2022/06/06 07:36:24;;;;;;;1.48;0.80;;;;;;;26.09;35.69;101540.03;4165566;28;20045;-62
2022/06/06 07:38:45;;;;;;;1.23;0.80;;;;;;;26.05;35.57;101527.75;4164910;28;20540;-61
2022/06/06 07:41:12;;;;;;;1.73;0.80;;;;;;;26.05;35.46;101538.97;4165766;28;20071;-62
2022/06/06 07:43:52;;;;;;;1.30;0.80;;;;;;;26.04;35.41;101534.50;4165232;28;20076;-62
2022/06/06 07:46:30;;;;;;;1.10;0.80;;;;;;;26.02;35.50;101525.53;4165116;28;20112;-61
2022/06/06 07:49:04;;;;;;;1.35;1.00;;;;;;;26.02;35.42;101528.34;4164319;28;20476;-61
2022/06/06 07:51:21;;;;;;;0.70;0.68;;;;;;;26.00;35.59;101523.06;4164188;28;20041;-61
2022/06/06 07:53:25;;;;;;;2.25;0.65;;;;;;;26.01;35.34;101523.88;4165000;28;20095;-62
2022/06/06 07:55:31;;;;;;;0.85;0.77;;;;;;;25.99;35.23;101520.56;4164346;28;20095;-61
2022/06/06 07:58:12;;;;;;;1.83;0.90;;;;;;;25.97;35.49;101520.00;4163874;28;20107;-61
2022/06/06 08:00:22;;;;;;;0.98;0.75;;;;;;;25.98;35.83;101524.47;4165312;28;20065;-61
2022/06/06 08:02:51;;;;;;;1.23;0.80;;;;;;;25.97;35.41;101522.81;4164897;28;20045;-61
2022/06/06 08:05:14;;;;;;;1.35;0.90;;;;;;;25.97;35.55;101522.81;4165035;28;20053;-61
2022/06/06 08:07:31;;;;;;;1.60;0.80;;;;;;;25.96;35.33;101526.75;4164590;28;20046;-61
2022/06/06 08:09:56;;;;;;;1.15;0.73;;;;;;;25.94;35.18;101523.44;4164580;28;20037;-61
2022/06/06 08:12:08;;;;;;;0.98;0.85;;;;;;;25.92;35.28;101522.88;4164440;28;20049;-61
2022/06/06 08:14:39;;;;;;;1.08;0.70;;;;;;;25.90;35.20;101519.56;4164262;28;20091;-62
2022/06/06 08:16:54;;;;;;;1.83;0.90;;;;;;;25.89;35.04;101520.66;4164122;28;20045;-63
2022/06/06 08:19:26;;;;;;;1.08;0.73;;;;;;;25.76;35.40;101497.88;4163451;28;20045;-62
2022/06/06 08:21:33;;;;;;;1.08;0.95;;;;;;;25.85;35.29;101509.25;4164661;28;20065;-61
2022/06/06 08:23:37;;;;;;;1.00;0.90;;;;;;;25.84;34.71;101514.03;4164257;28;20041;-61
2022/06/06 08:25:40;;;;;;;1.08;0.80;;;;;;;25.80;34.83;101507.34;4164507;28;20087;-61
2022/06/06 08:27:50;;;;;;;1.75;1.20;;;;;;;25.83;34.98;101512.34;4163905;28;20041;-61
2022/06/06 08:29:51;;;;;;;0.68;0.68;;;;;;;25.80;35.08;101501.75;4164253;28;20540;-62
2022/06/06 08:31:54;;;;;;;1.02;0.70;;;;;;;25.74;35.10;101500.09;4164241;28;20275;-62
2022/06/06 08:33:55;;;;;;;1.10;1.00;;;;;;;25.79;34.80;101516.03;4163995;28;20037;-61
2022/06/06 08:36:17;;;;;;;1.00;0.75;;;;;;;25.76;35.41;101511.88;4163931;28;20568;-62
2022/06/06 08:38:43;;;;;;;1.20;0.80;;;;;;;25.76;35.05;101514.69;4163773;28;20100;-62
2022/06/06 08:40:50;;;;;;;;;;;;;;;25.75;35.49;101515.78;4165356;28;20075;-62
2022/06/06 08:43:20;;;;;;;0.88;0.60;;;;;;;25.78;35.21;101515.22;4164882;28;19913;-61
2022/06/06 08:45:44;;;;;;;0.75;0.75;;;;;;;25.78;35.34;101518.00;4164253;28;20439;-61
2022/06/06 08:47:55;;;;;;;1.00;0.80;;;;;;;25.77;34.93;101516.34;4164062;28;20103;-61
2022/06/06 08:50:48;;;;;;;1.00;0.88;;;;;;;25.74;35.03;101519.72;4163986;28;20428;-62
2022/06/06 08:53:22;;;;;;;1.15;0.80;;;;;;;25.72;35.22;101521.16;4164063;28;20049;-61
2022/06/06 08:55:41;;;;;;;1.17;0.80;;;;;;;25.70;35.05;101509.41;4163774;28;20493;-61
2022/06/06 08:58:12;;;;;;;0.75;0.75;;;;;;;25.69;35.30;101516.16;4163696;28;20107;-61
2022/06/06 09:00:30;;;;;;;0.95;0.80;;;;;;;25.66;35.04;101511.13;4164572;28;20476;-61
2022/06/06 09:02:40;;;;;;;0.80;0.73;;;;;;;25.69;35.30;101525.38;4164123;28;20046;-62
2022/06/06 09:05:03;;;;;;;0.70;0.60;;;;;;;25.69;35.37;101522.59;4163885;28;20080;-61
2022/06/06 09:07:29;;;;;;;0.60;0.60;;;;;;;25.67;35.14;101524.03;4163898;28;20366;-61
2022/06/06 09:09:49;;;;;;;;;;;;;;;25.65;35.50;101532.72;4164581;28;20100;-61
2022/06/06 09:12:20;;;;;;;0.95;0.77;;;;;;;25.68;35.16;101532.13;4164296;28;19967;-61
2022/06/06 09:14:56;;;;;;;0.70;0.70;;;;;;;25.68;35.24;101534.94;4164210;28;20122;-61
2022/06/06 09:17:26;;;;;;;1.88;0.70;;;;;;;25.66;35.11;101533.56;4163117;28;20099;-61
2022/06/06 09:19:55;;;;;;;1.30;0.80;;;;;;;25.63;35.43;101540.59;4162404;28;20485;-61
2022/06/06 09:22:35;;;;;;;1.75;0.95;;;;;;;25.61;35.44;101548.47;4164180;28;20095;-61
2022/06/06 09:24:58;;;;;;;0.85;0.82;;;;;;;25.60;35.14;101553.25;4164076;28;20092;-62
2022/06/06 09:27:39;;;;;;;3.88;0.75;;;;;;;25.58;35.58;101551.88;4163807;28;20041;-61
2022/06/06 09:29:52;;;;;;;1.27;0.98;;;;;;;25.60;35.29;101553.25;4163715;28;20042;-61
2022/06/06 09:32:08;;;;;;;1.30;0.68;;;;;;;25.57;34.96;101559.47;4163177;28;20343;-61
2022/06/06 09:34:36;;;;;;;0.88;0.70;;;;;;;25.57;35.15;101564.22;4163954;28;20041;-61
2022/06/06 09:36:56;;;;;;;1.10;0.80;;;;;;;25.55;35.18;101563.69;4163995;28;20049;-61
2022/06/06 09:39:08;;;;;;;0.90;0.63;;;;;;;25.54;35.13;101557.25;4163990;28;20099;-61
2022/06/06 09:41:35;;;;;;;1.80;0.73;;;;;;;25.51;35.47;101552.22;4164105;28;20045;-61
2022/06/06 09:43:56;;;;;;;0.95;0.60;;;;;;;25.51;35.54;101560.63;4163564;28;20041;-61
2022/06/06 09:46:12;;;;;;;0.75;0.75;;;;;;;25.52;35.10;101555.84;4163777;28;20045;-61
2022/06/06 09:48:51;;;;;;;0.70;0.70;;;;;;;25.49;35.32;101559.28;4167068;28;20045;-61
2022/06/06 09:51:31;;;;;;;1.08;0.80;;;;;;;25.47;35.51;101564.31;4167051;28;20037;-61
2022/06/06 09:59:34;;;;;;;1.00;0.90;;;;;;;25.48;35.47;101571.63;4085431;29;20083;-61
2022/06/06 10:02:24;;;;;;;1.15;0.90;;;;;;;25.46;35.15;101571.91;4156390;28;20477;-61
2022/06/06 10:05:00;;;;;;;0.75;0.70;;;;;;;25.45;35.37;101584.25;4166660;28;20084;-61
2022/06/06 10:07:24;;;;;;;1.10;1.00;;;;;;;25.47;35.15;101586.75;4165912;28;20099;-61
2022/06/06 10:09:46;;;;;;;1.02;0.93;;;;;;;25.46;35.50;101585.06;4166716;28;20082;-61
2022/06/06 10:12:15;;;;;;;0.85;0.85;;;;;;;25.45;35.55;101594.63;4167117;28;20079;-61
2022/06/06 10:14:35;;;;;;;1.00;0.90;;;;;;;25.44;35.39;101598.56;4166634;28;20431;-61
2022/06/06 10:16:56;;;;;;;0.90;0.90;;;;;;;25.43;35.44;101602.47;4169119;28;20033;-61
2022/06/06 10:19:45;;;;;;;1.27;0.70;;;;;;;25.39;35.46;101607.03;4182760;28;20071;-60
2022/06/06 10:22:02;;;;;;;0.82;0.82;;;;;;;25.42;35.45;101606.41;4168569;28;20103;-61
2022/06/06 10:24:09;;;;;;;1.05;0.80;;;;;;;25.42;35.44;101606.41;4165953;28;20559;-61
2022/06/06 10:26:11;;;;;;;1.35;0.90;;;;;;;25.41;35.36;101619.59;4166371;28;20041;-61
2022/06/06 10:28:44;;;;;;;1.38;0.90;;;;;;;25.35;35.62;101612.38;4174011;28;20069;-61
2022/06/06 10:31:12;;;;;;;1.27;0.88;;;;;;;25.38;35.20;101616.53;4177475;28;20450;-61
2022/06/06 10:33:35;;;;;;;1.00;0.90;;;;;;;25.38;35.23;101622.97;4169672;28;20045;-61
2022/06/06 10:35:58;;;;;;;0.75;0.73;;;;;;;25.38;35.45;101622.13;4166407;28;20038;-61
2022/06/06 10:38:27;;;;;;;2.10;0.85;;;;;;;25.34;35.22;101633.94;4165747;28;20053;-61
2022/06/06 10:40:46;;;;;;;1.17;0.90;;;;;;;25.37;35.20;101637.28;4179179;28;20088;-60
2022/06/06 10:43:02;;;;;;;1.20;0.70;;;;;;;25.37;35.92;101631.69;4148982;28;20476;-60
2022/06/06 10:45:16;;;;;;;1.35;0.75;;;;;;;25.38;36.20;101639.78;4171155;28;20041;-60
2022/06/06 10:47:26;;;;;;;0.80;0.80;;;;;;;25.38;36.42;101644.53;4165859;28;20045;-61
2022/06/06 10:49:54;;;;;;;1.65;0.75;;;;;;;25.24;36.95;101628.41;4168888;28;20048;-60
2022/06/06 10:52:32;;;;;;;0.90;0.82;;;;;;;25.38;36.93;101656.59;4165216;28;20041;-60
2022/06/06 10:54:52;;;;;;;3.78;0.93;;;;;;;25.42;36.95;101657.69;4168747;28;20044;-60